Burton, MI (48529)

5:58 AM EST on February 08, 2016 (GMT -0500)
Dave Grand Blanc | | Change Station
CLOSE
Current Station
Personal Weather Station
Location: Grand Blanc, MI
Elevation: 797 ft
Nearby Weather Stations

Elev 797 ft 42.95 °N, 83.67 °W | Updated 1 second ago

Overcast
Overcast
35.3 °F
Feels Like 35 °F
N
0.4
Wind Variable Wind from SSW
Gusts 0.4 mph

Today
High -- | Low -- °F
--% Chance of Precip.
Yesterday
High -- | Low -- °F
Precip. -- in
Pressure 29.64 in
Visibility 10.0 miles
Clouds Mostly Cloudy 12000 ft
Windchill 35 °F
Dew Point 30 °F
Humidity 80%
Rainfall 0.00 in
Snow Depth Not available.
7:42 AM 5:56 PM
Waning Crescent, 0% visible
METAR KFNT 081053Z 23005KT 10SM BKN120 02/M02 A2962 RMK AO2 SLP035 T00221017
Pressure 29.64 in
Visibility 10.0 miles
Clouds Mostly Cloudy 12000 ft
Windchill 35 °F
Dew Point 30 °F
Humidity 80%
Rainfall 0.00 in
Snow Depth Not available.
7:42 AM 5:56 PM
Waning Crescent, 0% visible
METAR KFNT 081053Z 23005KT 10SM BKN120 02/M02 A2962 RMK AO2 SLP035 T00221017

10-Day Weather Forecast

Almanac

Astronomy

Feb. 08, 2016 Rise Set
Actual Time
Civil Twilight
Nautical Twilight
Astronomical Twilight
Moon
Length of Visible Light
Length of Day
Tomorrow will be .
, % of the Moon is Illuminated

Today's Extremes

State Highs State Lows

Community

WunderPhotos

Upload Photos

1,891,420 photos uploaded!

WunderBlog® & News

Nearby

Air Quality

  Air Quality AQ Index Pollutant
Not available.

Snow Depth

Station Depth Elevation

Earthquake Activity

City Distance Mag. Time & Date
Minimum magnitude displayed is 2.5.

Coastal Water Temperatures

Place Temperature

Stations

Nearby Weather Stations

Station Location Temp. Windchill Dew Point Humidity Wind Precip. Elev Updated Type
                   

Watches & Warnings

There are currently no watches in effect.